sensor_id;sensor_type;location;lat;lon;timestamp;pressure;altitude;pressure_sealevel;temperature;humidity
34034;BME280;63481;52.588;22.472;2024-01-25T00:03:04;98852.02;;;4.58;100.00
34034;BME280;63481;52.588;22.472;2024-01-25T00:08:06;98849.50;;;4.58;100.00
34034;BME280;63481;52.588;22.472;2024-01-25T00:13:09;98850.39;;;4.50;100.00
34034;BME280;63481;52.588;22.472;2024-01-25T00:18:11;98853.31;;;4.52;100.00
34034;BME280;63481;52.588;22.472;2024-01-25T00:23:13;98854.39;;;4.39;100.00
34034;BME280;63481;52.588;22.472;2024-01-25T00:28:15;98853.81;;;4.35;100.00
34034;BME280;63481;52.588;22.472;2024-01-25T00:33:17;98856.34;;;4.21;100.00
34034;BME280;63481;52.588;22.472;2024-01-25T00:38:20;98851.48;;;4.22;100.00
34034;BME280;63481;52.588;22.472;2024-01-25T00:43:22;98859.11;;;4.20;100.00
34034;BME280;63481;52.588;22.472;2024-01-25T00:48:25;98858.41;;;4.22;100.00
34034;BME280;63481;52.588;22.472;2024-01-25T00:53:27;98853.15;;;4.28;100.00
34034;BME280;63481;52.588;22.472;2024-01-25T00:58:29;98838.42;;;4.18;100.00
34034;BME280;63481;52.588;22.472;2024-01-25T01:03:32;98840.76;;;4.21;100.00
34034;BME280;63481;52.588;22.472;2024-01-25T01:08:35;98842.89;;;4.16;100.00
34034;BME280;63481;52.588;22.472;2024-01-25T01:13:38;98849.51;;;4.14;100.00
34034;BME280;63481;52.588;22.472;2024-01-25T01:18:40;98845.59;;;4.07;100.00
34034;BME280;63481;52.588;22.472;2024-01-25T01:23:42;98850.01;;;4.03;100.00
34034;BME280;63481;52.588;22.472;2024-01-25T01:28:44;98843.02;;;4.05;100.00
34034;BME280;63481;52.588;22.472;2024-01-25T01:33:46;98847.33;;;4.00;100.00
34034;BME280;63481;52.588;22.472;2024-01-25T01:38:49;98851.86;;;4.01;100.00
34034;BME280;63481;52.588;22.472;2024-01-25T01:43:54;98858.17;;;3.91;100.00
34034;BME280;63481;52.588;22.472;2024-01-25T01:48:56;98858.89;;;3.91;100.00
34034;BME280;63481;52.588;22.472;2024-01-25T01:54:02;98859.80;;;3.87;100.00
34034;BME280;63481;52.588;22.472;2024-01-25T01:59:07;98857.23;;;3.81;100.00
34034;BME280;63481;52.588;22.472;2024-01-25T02:04:10;98859.67;;;3.72;100.00
34034;BME280;63481;52.588;22.472;2024-01-25T02:09:13;98856.67;;;3.75;100.00
34034;BME280;63481;52.588;22.472;2024-01-25T02:14:15;98855.09;;;3.73;100.00
34034;BME280;63481;52.588;22.472;2024-01-25T02:19:17;98850.15;;;3.74;100.00
34034;BME280;63481;52.588;22.472;2024-01-25T02:24:19;98859.84;;;3.72;100.00
34034;BME280;63481;52.588;22.472;2024-01-25T02:29:21;98854.95;;;3.70;100.00
34034;BME280;63481;52.588;22.472;2024-01-25T02:34:23;98859.30;;;3.71;100.00
34034;BME280;63481;52.588;22.472;2024-01-25T02:39:26;98851.50;;;3.71;100.00
34034;BME280;63481;52.588;22.472;2024-01-25T02:44:28;98857.66;;;3.68;100.00
34034;BME280;63481;52.588;22.472;2024-01-25T02:49:30;98859.15;;;3.65;100.00
34034;BME280;63481;52.588;22.472;2024-01-25T02:54:34;98859.93;;;3.67;100.00
34034;BME280;63481;52.588;22.472;2024-01-25T02:59:38;98863.55;;;3.70;100.00
34034;BME280;63481;52.588;22.472;2024-01-25T03:04:40;98864.15;;;3.61;100.00
34034;BME280;63481;52.588;22.472;2024-01-25T03:09:42;98869.30;;;3.60;100.00
34034;BME280;63481;52.588;22.472;2024-01-25T03:14:44;98866.60;;;3.53;100.00
34034;BME280;63481;52.588;22.472;2024-01-25T03:19:46;98868.55;;;3.54;100.00
34034;BME280;63481;52.588;22.472;2024-01-25T03:24:50;98880.39;;;3.54;100.00
34034;BME280;63481;52.588;22.472;2024-01-25T03:29:52;98877.93;;;3.57;100.00
34034;BME280;63481;52.588;22.472;2024-01-25T03:34:54;98884.66;;;3.51;100.00
34034;BME280;63481;52.588;22.472;2024-01-25T03:39:56;98884.92;;;3.53;100.00
34034;BME280;63481;52.588;22.472;2024-01-25T03:44:58;98890.60;;;3.54;100.00
34034;BME280;63481;52.588;22.472;2024-01-25T03:50:00;98896.48;;;3.46;100.00
34034;BME280;63481;52.588;22.472;2024-01-25T03:55:03;98902.83;;;3.50;100.00
34034;BME280;63481;52.588;22.472;2024-01-25T04:00:06;98902.66;;;3.43;100.00
34034;BME280;63481;52.588;22.472;2024-01-25T04:05:09;98905.59;;;3.44;100.00
34034;BME280;63481;52.588;22.472;2024-01-25T04:10:11;98914.43;;;3.43;100.00
34034;BME280;63481;52.588;22.472;2024-01-25T04:15:13;98916.59;;;3.40;100.00
34034;BME280;63481;52.588;22.472;2024-01-25T04:20:15;98914.19;;;3.38;100.00
34034;BME280;63481;52.588;22.472;2024-01-25T04:25:17;98924.34;;;3.40;100.00
34034;BME280;63481;52.588;22.472;2024-01-25T04:30:19;98935.69;;;3.39;100.00
34034;BME280;63481;52.588;22.472;2024-01-25T04:35:21;98935.69;;;3.35;100.00
34034;BME280;63481;52.588;22.472;2024-01-25T04:40:23;98941.30;;;3.31;100.00
34034;BME280;63481;52.588;22.472;2024-01-25T04:45:26;98943.65;;;3.36;100.00
34034;BME280;63481;52.588;22.472;2024-01-25T04:50:28;98943.64;;;3.35;100.00
34034;BME280;63481;52.588;22.472;2024-01-25T04:55:30;98954.13;;;3.28;100.00
34034;BME280;63481;52.588;22.472;2024-01-25T05:00:32;98959.20;;;3.30;100.00
34034;BME280;63481;52.588;22.472;2024-01-25T05:05:34;98960.73;;;3.30;100.00
34034;BME280;63481;52.588;22.472;2024-01-25T05:10:36;98966.72;;;3.26;100.00
34034;BME280;63481;52.588;22.472;2024-01-25T05:15:38;98967.55;;;3.29;100.00
34034;BME280;63481;52.588;22.472;2024-01-25T05:20:40;98972.62;;;3.29;100.00
34034;BME280;63481;52.588;22.472;2024-01-25T05:25:42;98970.88;;;3.29;100.00
34034;BME280;63481;52.588;22.472;2024-01-25T05:30:44;98973.95;;;3.27;100.00
34034;BME280;63481;52.588;22.472;2024-01-25T05:35:46;98974.95;;;3.28;100.00
34034;BME280;63481;52.588;22.472;2024-01-25T05:40:49;98975.86;;;3.25;100.00
34034;BME280;63481;52.588;22.472;2024-01-25T05:45:51;98985.17;;;3.24;100.00
34034;BME280;63481;52.588;22.472;2024-01-25T05:50:53;98981.14;;;3.22;100.00
34034;BME280;63481;52.588;22.472;2024-01-25T05:55:55;98988.66;;;3.23;100.00
34034;BME280;63481;52.588;22.472;2024-01-25T06:00:57;98991.41;;;3.23;100.00
34034;BME280;63481;52.588;22.472;2024-01-25T06:05:59;98997.88;;;3.21;100.00
34034;BME280;63481;52.588;22.472;2024-01-25T06:11:02;99007.41;;;3.22;100.00
34034;BME280;63481;52.588;22.472;2024-01-25T06:16:04;99010.17;;;3.20;100.00
34034;BME280;63481;52.588;22.472;2024-01-25T06:21:06;99016.10;;;3.20;100.00
34034;BME280;63481;52.588;22.472;2024-01-25T06:26:08;99020.39;;;3.24;100.00
34034;BME280;63481;52.588;22.472;2024-01-25T06:31:11;99020.77;;;3.25;100.00
34034;BME280;63481;52.588;22.472;2024-01-25T06:36:13;99013.70;;;3.18;100.00
34034;BME280;63481;52.588;22.472;2024-01-25T06:41:17;99017.73;;;3.24;100.00
34034;BME280;63481;52.588;22.472;2024-01-25T06:46:19;99012.61;;;3.23;100.00
34034;BME280;63481;52.588;22.472;2024-01-25T06:51:21;99016.55;;;3.21;100.00
34034;BME280;63481;52.588;22.472;2024-01-25T06:56:23;99023.53;;;3.17;100.00
34034;BME280;63481;52.588;22.472;2024-01-25T07:01:25;99028.27;;;3.18;100.00
34034;BME280;63481;52.588;22.472;2024-01-25T07:06:29;99029.80;;;3.20;100.00
34034;BME280;63481;52.588;22.472;2024-01-25T07:11:32;99037.75;;;3.21;100.00
34034;BME280;63481;52.588;22.472;2024-01-25T07:16:34;99046.90;;;3.25;100.00
34034;BME280;63481;52.588;22.472;2024-01-25T07:21:36;99059.77;;;3.19;100.00
34034;BME280;63481;52.588;22.472;2024-01-25T07:26:38;99062.94;;;3.19;100.00
34034;BME280;63481;52.588;22.472;2024-01-25T07:31:40;99068.66;;;3.18;100.00
34034;BME280;63481;52.588;22.472;2024-01-25T07:36:42;99066.80;;;3.19;100.00
34034;BME280;63481;52.588;22.472;2024-01-25T07:41:45;99072.89;;;3.20;100.00
34034;BME280;63481;52.588;22.472;2024-01-25T07:46:47;99074.53;;;3.19;100.00
34034;BME280;63481;52.588;22.472;2024-01-25T07:51:49;99075.46;;;3.23;100.00
34034;BME280;63481;52.588;22.472;2024-01-25T07:56:51;99079.96;;;3.23;100.00
34034;BME280;63481;52.588;22.472;2024-01-25T08:01:53;99078.41;;;3.26;100.00
34034;BME280;63481;52.588;22.472;2024-01-25T08:06:55;99082.26;;;3.29;100.00
34034;BME280;63481;52.588;22.472;2024-01-25T08:11:58;99091.54;;;3.29;100.00
34034;BME280;63481;52.588;22.472;2024-01-25T08:17:00;99094.34;;;3.25;100.00
34034;BME280;63481;52.588;22.472;2024-01-25T08:22:03;99095.02;;;3.29;100.00
34034;BME280;63481;52.588;22.472;2024-01-25T08:27:05;99097.16;;;3.32;100.00
34034;BME280;63481;52.588;22.472;2024-01-25T08:32:09;99099.77;;;3.34;100.00
34034;BME280;63481;52.588;22.472;2024-01-25T08:37:13;99105.27;;;3.33;100.00
34034;BME280;63481;52.588;22.472;2024-01-25T08:42:17;99108.64;;;3.33;100.00
34034;BME280;63481;52.588;22.472;2024-01-25T08:47:19;99108.91;;;3.32;100.00
34034;BME280;63481;52.588;22.472;2024-01-25T08:52:21;99118.91;;;3.35;100.00
34034;BME280;63481;52.588;22.472;2024-01-25T08:57:23;99118.70;;;3.38;100.00
34034;BME280;63481;52.588;22.472;2024-01-25T09:02:25;99121.96;;;3.47;100.00
34034;BME280;63481;52.588;22.472;2024-01-25T09:07:29;99133.95;;;3.47;100.00
34034;BME280;63481;52.588;22.472;2024-01-25T09:12:31;99140.70;;;3.41;100.00
34034;BME280;63481;52.588;22.472;2024-01-25T09:17:33;99148.52;;;3.40;100.00
34034;BME280;63481;52.588;22.472;2024-01-25T09:22:35;99144.77;;;3.37;100.00
34034;BME280;63481;52.588;22.472;2024-01-25T09:27:38;99151.70;;;3.41;100.00
34034;BME280;63481;52.588;22.472;2024-01-25T09:32:40;99155.48;;;3.48;100.00
34034;BME280;63481;52.588;22.472;2024-01-25T09:37:42;99160.50;;;3.52;100.00
34034;BME280;63481;52.588;22.472;2024-01-25T09:42:44;99155.80;;;3.55;100.00
34034;BME280;63481;52.588;22.472;2024-01-25T09:47:47;99158.58;;;3.55;100.00
34034;BME280;63481;52.588;22.472;2024-01-25T09:52:54;99162.29;;;3.59;100.00
34034;BME280;63481;52.588;22.472;2024-01-25T09:57:59;99170.59;;;3.71;100.00
34034;BME280;63481;52.588;22.472;2024-01-25T10:03:01;99167.17;;;3.86;100.00
34034;BME280;63481;52.588;22.472;2024-01-25T10:08:04;99170.73;;;3.86;100.00
34034;BME280;63481;52.588;22.472;2024-01-25T10:13:12;99171.79;;;3.82;100.00
34034;BME280;63481;52.588;22.472;2024-01-25T10:18:15;99177.05;;;3.80;100.00
34034;BME280;63481;52.588;22.472;2024-01-25T10:23:17;99180.98;;;3.86;100.00
34034;BME280;63481;52.588;22.472;2024-01-25T10:28:19;99182.91;;;3.86;100.00
34034;BME280;63481;52.588;22.472;2024-01-25T10:33:21;99184.83;;;3.89;100.00
34034;BME280;63481;52.588;22.472;2024-01-25T10:38:25;99190.90;;;3.95;100.00
34034;BME280;63481;52.588;22.472;2024-01-25T10:43:28;99195.39;;;4.03;100.00
34034;BME280;63481;52.588;22.472;2024-01-25T10:48:32;99201.86;;;3.91;100.00
34034;BME280;63481;52.588;22.472;2024-01-25T10:53:35;99214.39;;;3.73;100.00
34034;BME280;63481;52.588;22.472;2024-01-25T10:58:40;99224.81;;;3.70;100.00
34034;BME280;63481;52.588;22.472;2024-01-25T11:03:45;99249.98;;;3.58;100.00
34034;BME280;63481;52.588;22.472;2024-01-25T11:08:50;99251.17;;;3.48;100.00
34034;BME280;63481;52.588;22.472;2024-01-25T11:13:55;99270.17;;;3.26;100.00
34034;BME280;63481;52.588;22.472;2024-01-25T11:18:58;99285.42;;;3.12;100.00
34034;BME280;63481;52.588;22.472;2024-01-25T11:24:15;99296.77;;;3.01;100.00
34034;BME280;63481;52.588;22.472;2024-01-25T11:29:19;99298.64;;;2.89;100.00
34034;BME280;63481;52.588;22.472;2024-01-25T11:34:22;99315.45;;;2.74;100.00
34034;BME280;63481;52.588;22.472;2024-01-25T11:39:25;99318.58;;;2.56;100.00
34034;BME280;63481;52.588;22.472;2024-01-25T11:44:27;99339.62;;;2.35;100.00
34034;BME280;63481;52.588;22.472;2024-01-25T11:49:29;99350.27;;;2.13;100.00
34034;BME280;63481;52.588;22.472;2024-01-25T11:54:31;99354.17;;;2.05;100.00
34034;BME280;63481;52.588;22.472;2024-01-25T11:59:33;99355.86;;;1.98;100.00
34034;BME280;63481;52.588;22.472;2024-01-25T12:04:36;99356.58;;;1.95;100.00
34034;BME280;63481;52.588;22.472;2024-01-25T12:09:38;99361.79;;;2.07;100.00
34034;BME280;63481;52.588;22.472;2024-01-25T12:14:40;99369.83;;;2.28;100.00
34034;BME280;63481;52.588;22.472;2024-01-25T12:19:42;99366.23;;;2.35;100.00
34034;BME280;63481;52.588;22.472;2024-01-25T12:24:45;99379.60;;;2.64;100.00
34034;BME280;63481;52.588;22.472;2024-01-25T12:29:49;99377.23;;;2.81;100.00
34034;BME280;63481;52.588;22.472;2024-01-25T12:34:54;99393.81;;;2.71;100.00
34034;BME280;63481;52.588;22.472;2024-01-25T12:39:57;99406.72;;;2.66;100.00
34034;BME280;63481;52.588;22.472;2024-01-25T12:44:59;99415.98;;;2.59;100.00
34034;BME280;63481;52.588;22.472;2024-01-25T12:50:01;99417.90;;;2.55;100.00
34034;BME280;63481;52.588;22.472;2024-01-25T12:55:04;99422.01;;;2.46;100.00
34034;BME280;63481;52.588;22.472;2024-01-25T13:00:06;99422.47;;;2.45;100.00
34034;BME280;63481;52.588;22.472;2024-01-25T13:05:09;99425.55;;;2.51;100.00
34034;BME280;63481;52.588;22.472;2024-01-25T13:10:11;99429.91;;;2.63;100.00
34034;BME280;63481;52.588;22.472;2024-01-25T13:15:13;99438.52;;;2.58;100.00
34034;BME280;63481;52.588;22.472;2024-01-25T13:20:16;99453.13;;;2.41;100.00
34034;BME280;63481;52.588;22.472;2024-01-25T13:25:19;99454.45;;;2.26;100.00
34034;BME280;63481;52.588;22.472;2024-01-25T13:30:21;99447.44;;;2.15;100.00
34034;BME280;63481;52.588;22.472;2024-01-25T13:35:23;99452.43;;;2.44;100.00
34034;BME280;63481;52.588;22.472;2024-01-25T13:40:25;99467.36;;;2.39;100.00
34034;BME280;63481;52.588;22.472;2024-01-25T13:45:27;99473.90;;;2.87;100.00
34034;BME280;63481;52.588;22.472;2024-01-25T13:50:30;99475.34;;;2.68;100.00
34034;BME280;63481;52.588;22.472;2024-01-25T13:55:32;99483.69;;;2.16;100.00
34034;BME280;63481;52.588;22.472;2024-01-25T14:00:34;99480.03;;;2.11;100.00
34034;BME280;63481;52.588;22.472;2024-01-25T14:05:36;99492.08;;;2.01;100.00
34034;BME280;63481;52.588;22.472;2024-01-25T14:10:38;99495.64;;;2.05;100.00
34034;BME280;63481;52.588;22.472;2024-01-25T14:15:40;99504.09;;;2.12;100.00
34034;BME280;63481;52.588;22.472;2024-01-25T14:20:43;99515.52;;;2.15;100.00
34034;BME280;63481;52.588;22.472;2024-01-25T14:25:45;99528.83;;;2.17;100.00
34034;BME280;63481;52.588;22.472;2024-01-25T14:30:47;99539.23;;;2.07;100.00
34034;BME280;63481;52.588;22.472;2024-01-25T14:35:49;99545.75;;;1.88;100.00
34034;BME280;63481;52.588;22.472;2024-01-25T14:40:52;99547.54;;;1.79;100.00
34034;BME280;63481;52.588;22.472;2024-01-25T14:45:54;99554.67;;;1.75;100.00
34034;BME280;63481;52.588;22.472;2024-01-25T14:50:56;99565.81;;;1.69;100.00
34034;BME280;63481;52.588;22.472;2024-01-25T14:55:58;99574.99;;;1.66;100.00
34034;BME280;63481;52.588;22.472;2024-01-25T15:01:00;99582.77;;;1.66;100.00
34034;BME280;63481;52.588;22.472;2024-01-25T15:06:02;99588.30;;;1.67;100.00
34034;BME280;63481;52.588;22.472;2024-01-25T15:11:06;99594.84;;;1.70;100.00
34034;BME280;63481;52.588;22.472;2024-01-25T15:16:08;99604.85;;;1.68;100.00
34034;BME280;63481;52.588;22.472;2024-01-25T15:21:10;99614.61;;;1.62;100.00
34034;BME280;63481;52.588;22.472;2024-01-25T15:26:13;99627.35;;;1.50;100.00
34034;BME280;63481;52.588;22.472;2024-01-25T15:31:15;99649.45;;;1.54;100.00
34034;BME280;63481;52.588;22.472;2024-01-25T15:36:17;99665.13;;;1.60;100.00
34034;BME280;63481;52.588;22.472;2024-01-25T15:41:22;99671.11;;;1.61;100.00
34034;BME280;63481;52.588;22.472;2024-01-25T15:46:24;99674.66;;;1.61;100.00
34034;BME280;63481;52.588;22.472;2024-01-25T15:51:26;99680.66;;;1.62;100.00
34034;BME280;63481;52.588;22.472;2024-01-25T15:56:28;99689.79;;;1.56;100.00
34034;BME280;63481;52.588;22.472;2024-01-25T16:01:31;99697.86;;;1.46;100.00
34034;BME280;63481;52.588;22.472;2024-01-25T16:06:33;99707.15;;;1.34;100.00
34034;BME280;63481;52.588;22.472;2024-01-25T16:11:35;99719.70;;;1.27;100.00
34034;BME280;63481;52.588;22.472;2024-01-25T16:16:37;99727.73;;;1.18;100.00
34034;BME280;63481;52.588;22.472;2024-01-25T16:21:39;99738.79;;;1.18;100.00
34034;BME280;63481;52.588;22.472;2024-01-25T16:26:41;99753.86;;;1.28;100.00
34034;BME280;63481;52.588;22.472;2024-01-25T16:31:43;99756.83;;;1.33;100.00
34034;BME280;63481;52.588;22.472;2024-01-25T16:36:46;99758.56;;;1.21;100.00
34034;BME280;63481;52.588;22.472;2024-01-25T16:41:48;99773.23;;;1.14;100.00
34034;BME280;63481;52.588;22.472;2024-01-25T16:46:50;99774.48;;;1.22;100.00
34034;BME280;63481;52.588;22.472;2024-01-25T16:51:53;99773.16;;;1.31;100.00
34034;BME280;63481;52.588;22.472;2024-01-25T16:56:55;99777.52;;;1.31;100.00
34034;BME280;63481;52.588;22.472;2024-01-25T17:01:58;99786.21;;;1.33;100.00
34034;BME280;63481;52.588;22.472;2024-01-25T17:07:00;99790.95;;;1.36;100.00
34034;BME280;63481;52.588;22.472;2024-01-25T17:12:02;99782.27;;;1.31;100.00
34034;BME280;63481;52.588;22.472;2024-01-25T17:17:04;99786.25;;;1.25;100.00
34034;BME280;63481;52.588;22.472;2024-01-25T17:22:08;99792.04;;;1.26;100.00
34034;BME280;63481;52.588;22.472;2024-01-25T17:27:10;99794.91;;;1.24;100.00
34034;BME280;63481;52.588;22.472;2024-01-25T17:32:12;99809.08;;;1.22;100.00
34034;BME280;63481;52.588;22.472;2024-01-25T17:37:14;99813.38;;;1.21;100.00
34034;BME280;63481;52.588;22.472;2024-01-25T17:42:17;99819.38;;;1.17;100.00
34034;BME280;63481;52.588;22.472;2024-01-25T17:47:19;99834.82;;;1.15;100.00
34034;BME280;63481;52.588;22.472;2024-01-25T17:52:21;99834.00;;;1.22;100.00
34034;BME280;63481;52.588;22.472;2024-01-25T17:57:23;99841.86;;;1.25;100.00
34034;BME280;63481;52.588;22.472;2024-01-25T18:02:25;99846.02;;;1.29;100.00
34034;BME280;63481;52.588;22.472;2024-01-25T18:07:27;99847.67;;;1.25;100.00
34034;BME280;63481;52.588;22.472;2024-01-25T18:12:30;99854.55;;;1.21;100.00
34034;BME280;63481;52.588;22.472;2024-01-25T18:17:32;99862.65;;;1.20;100.00
34034;BME280;63481;52.588;22.472;2024-01-25T18:22:35;99870.98;;;1.19;100.00
34034;BME280;63481;52.588;22.472;2024-01-25T18:27:37;99884.67;;;1.19;100.00
34034;BME280;63481;52.588;22.472;2024-01-25T18:32:39;99878.83;;;1.25;100.00
34034;BME280;63481;52.588;22.472;2024-01-25T18:37:42;99890.98;;;1.21;100.00
34034;BME280;63481;52.588;22.472;2024-01-25T18:42:44;99891.14;;;1.21;100.00
34034;BME280;63481;52.588;22.472;2024-01-25T18:47:47;99901.65;;;1.21;100.00
34034;BME280;63481;52.588;22.472;2024-01-25T18:52:49;99909.30;;;1.16;100.00
34034;BME280;63481;52.588;22.472;2024-01-25T18:57:51;99917.42;;;1.00;100.00
34034;BME280;63481;52.588;22.472;2024-01-25T19:02:54;99931.64;;;0.88;100.00
34034;BME280;63481;52.588;22.472;2024-01-25T19:07:56;99935.38;;;0.90;100.00
34034;BME280;63481;52.588;22.472;2024-01-25T19:12:59;99940.45;;;0.92;100.00
34034;BME280;63481;52.588;22.472;2024-01-25T19:18:01;99941.65;;;0.96;100.00
34034;BME280;63481;52.588;22.472;2024-01-25T19:23:03;99940.23;;;0.99;100.00
34034;BME280;63481;52.588;22.472;2024-01-25T19:28:06;99949.45;;;1.02;100.00
34034;BME280;63481;52.588;22.472;2024-01-25T19:33:08;99954.27;;;0.98;100.00
34034;BME280;63481;52.588;22.472;2024-01-25T19:38:10;99951.67;;;0.97;100.00
34034;BME280;63481;52.588;22.472;2024-01-25T19:43:13;99963.14;;;0.91;100.00
34034;BME280;63481;52.588;22.472;2024-01-25T19:48:15;99959.51;;;0.87;100.00
34034;BME280;63481;52.588;22.472;2024-01-25T19:53:17;99971.90;;;0.79;100.00
34034;BME280;63481;52.588;22.472;2024-01-25T19:58:20;99969.94;;;0.81;100.00
34034;BME280;63481;52.588;22.472;2024-01-25T20:03:23;99973.13;;;0.80;100.00
34034;BME280;63481;52.588;22.472;2024-01-25T20:08:25;99974.04;;;0.76;100.00
34034;BME280;63481;52.588;22.472;2024-01-25T20:13:28;99985.90;;;0.72;100.00
34034;BME280;63481;52.588;22.472;2024-01-25T20:18:31;99989.40;;;0.64;100.00
34034;BME280;63481;52.588;22.472;2024-01-25T20:23:34;99989.24;;;0.68;100.00
34034;BME280;63481;52.588;22.472;2024-01-25T20:28:36;99997.46;;;0.73;100.00
34034;BME280;63481;52.588;22.472;2024-01-25T20:33:38;100007.70;;;0.81;100.00
34034;BME280;63481;52.588;22.472;2024-01-25T20:38:40;100004.35;;;0.87;100.00
34034;BME280;63481;52.588;22.472;2024-01-25T20:43:42;100010.52;;;0.90;100.00
34034;BME280;63481;52.588;22.472;2024-01-25T20:48:46;100018.42;;;0.93;100.00
34034;BME280;63481;52.588;22.472;2024-01-25T20:53:48;100018.61;;;0.96;100.00
34034;BME280;63481;52.588;22.472;2024-01-25T20:58:51;100024.20;;;0.93;100.00
34034;BME280;63481;52.588;22.472;2024-01-25T21:03:54;100038.83;;;0.81;100.00
34034;BME280;63481;52.588;22.472;2024-01-25T21:08:59;100049.18;;;0.72;100.00
34034;BME280;63481;52.588;22.472;2024-01-25T21:14:02;100053.44;;;0.75;100.00
34034;BME280;63481;52.588;22.472;2024-01-25T21:19:04;100049.76;;;0.80;100.00
34034;BME280;63481;52.588;22.472;2024-01-25T21:24:06;100054.86;;;0.82;100.00
34034;BME280;63481;52.588;22.472;2024-01-25T21:29:08;100052.55;;;0.81;100.00
34034;BME280;63481;52.588;22.472;2024-01-25T21:34:11;100054.30;;;0.80;100.00
34034;BME280;63481;52.588;22.472;2024-01-25T21:39:14;100051.58;;;0.82;100.00
34034;BME280;63481;52.588;22.472;2024-01-25T21:44:16;100067.63;;;0.78;100.00
34034;BME280;63481;52.588;22.472;2024-01-25T21:49:18;100074.60;;;0.81;100.00
34034;BME280;63481;52.588;22.472;2024-01-25T21:54:20;100078.44;;;0.81;100.00
34034;BME280;63481;52.588;22.472;2024-01-25T21:59:23;100086.70;;;0.86;100.00
34034;BME280;63481;52.588;22.472;2024-01-25T22:04:25;100089.58;;;0.77;100.00
34034;BME280;63481;52.588;22.472;2024-01-25T22:09:27;100098.90;;;0.74;100.00
34034;BME280;63481;52.588;22.472;2024-01-25T22:14:30;100108.27;;;0.78;100.00
34034;BME280;63481;52.588;22.472;2024-01-25T22:19:32;100113.56;;;0.77;100.00
34034;BME280;63481;52.588;22.472;2024-01-25T22:24:35;100118.89;;;0.73;100.00
34034;BME280;63481;52.588;22.472;2024-01-25T22:29:37;100124.16;;;0.68;100.00
34034;BME280;63481;52.588;22.472;2024-01-25T22:34:39;100126.91;;;0.66;100.00
34034;BME280;63481;52.588;22.472;2024-01-25T22:39:42;100137.95;;;0.71;100.00
34034;BME280;63481;52.588;22.472;2024-01-25T22:44:44;100142.20;;;0.76;100.00
34034;BME280;63481;52.588;22.472;2024-01-25T22:49:46;100153.36;;;0.75;100.00
34034;BME280;63481;52.588;22.472;2024-01-25T22:54:48;100151.43;;;0.71;100.00
34034;BME280;63481;52.588;22.472;2024-01-25T22:59:50;100153.08;;;0.67;100.00
34034;BME280;63481;52.588;22.472;2024-01-25T23:04:53;100159.25;;;0.63;100.00
34034;BME280;63481;52.588;22.472;2024-01-25T23:09:55;100168.01;;;0.63;100.00
34034;BME280;63481;52.588;22.472;2024-01-25T23:14:57;100171.76;;;0.58;100.00
34034;BME280;63481;52.588;22.472;2024-01-25T23:20:00;100175.46;;;0.58;100.00
34034;BME280;63481;52.588;22.472;2024-01-25T23:25:03;100186.45;;;0.56;100.00
34034;BME280;63481;52.588;22.472;2024-01-25T23:30:07;100188.38;;;0.52;100.00
34034;BME280;63481;52.588;22.472;2024-01-25T23:35:09;100191.52;;;0.52;100.00
34034;BME280;63481;52.588;22.472;2024-01-25T23:40:12;100201.56;;;0.50;100.00
34034;BME280;63481;52.588;22.472;2024-01-25T23:45:17;100213.05;;;0.47;100.00
34034;BME280;63481;52.588;22.472;2024-01-25T23:50:19;100229.83;;;0.47;100.00
34034;BME280;63481;52.588;22.472;2024-01-25T23:55:22;100232.45;;;0.45;100.00
